Time;durP1;ratioP1;P1;durP2;ratioP2;P2;SDS_P1;SDS_P2;PMS_P1;PMS_P2;Temp;Humidity;BMP_temperature;BMP_pressure;BME280_temperature;BME280_humidity;BME280_pressure;Samples;Min_cycle;Max_cycle;Signal;HPM_P1;HPM_P2
2021/10/05 00:00:54;;;;;;;5.35;4.93;;;;;;;;;;2040234;29;20254;-59
2021/10/05 00:01:54;;;;;;;5.45;4.95;;;;;;;;;;2040987;29;20180;-60
2021/10/05 00:02:54;;;;;;;6.00;5.45;;;;;;;;;;2039166;29;20251;-61
2021/10/05 00:03:55;;;;;;;5.22;4.85;;;;;;;;;;2039777;29;20171;-62
2021/10/05 00:04:55;;;;;;;5.68;5.18;;;;;;;;;;2037121;29;20176;-61
2021/10/05 00:05:55;;;;;;;5.28;4.78;;;;;;;;;;2040372;29;20183;-61
2021/10/05 00:06:55;;;;;;;6.00;5.28;;;;;;;;;;2040444;29;20175;-62
2021/10/05 00:07:55;;;;;;;5.55;5.05;;;;;;;;;;2039199;29;20649;-59
2021/10/05 00:08:56;;;;;;;5.43;5.03;;;;;;;;;;2039914;29;20183;-62
2021/10/05 00:09:56;;;;;;;5.05;4.72;;;;;;;;;;2040254;29;20184;-61
2021/10/05 00:10:56;;;;;;;5.72;5.28;;;;;;;;;;2040608;29;20210;-59
2021/10/05 00:11:57;;;;;;;5.30;4.82;;;;;;;;;;2040357;29;20699;-61
2021/10/05 00:12:57;;;;;;;8.35;5.72;;;;;;;;;;2038638;29;20271;-63
2021/10/05 00:13:57;;;;;;;8.60;5.63;;;;;;;;;;2039378;29;20188;-64
2021/10/05 00:14:58;;;;;;;4.78;4.38;;;;;;;;;;2040308;29;20180;-62
2021/10/05 00:15:58;;;;;;;5.88;5.40;;;;;;;;;;2037471;29;20177;-60
2021/10/05 00:16:58;;;;;;;6.43;5.28;;;;;;;;;;2038152;29;20833;-59
2021/10/05 00:17:58;;;;;;;5.70;5.22;;;;;;;;;;2039269;29;20198;-63
2021/10/05 00:18:59;;;;;;;5.55;5.15;;;;;;;;;;2040691;29;20195;-61
2021/10/05 00:19:59;;;;;;;5.72;5.22;;;;;;;;;;2040112;29;20191;-63
2021/10/05 00:20:59;;;;;;;5.80;5.40;;;;;;;;;;2039889;29;20176;-57
2021/10/05 00:22:00;;;;;;;5.63;5.22;;;;;;;;;;2040356;29;20176;-61
2021/10/05 00:23:00;;;;;;;6.10;5.60;;;;;;;;;;2039912;29;20191;-57
2021/10/05 00:24:00;;;;;;;6.05;5.55;;;;;;;;;;2039950;29;20254;-62
2021/10/05 00:25:01;;;;;;;6.60;5.45;;;;;;;;;;2039786;29;20605;-58
2021/10/05 00:26:01;;;;;;;5.78;5.38;;;;;;;;;;2039799;29;20214;-58
2021/10/05 00:27:01;;;;;;;6.18;5.65;;;;;;;;;;2039931;29;20256;-62
2021/10/05 00:28:02;;;;;;;5.22;4.93;;;;;;;;;;2039410;29;20299;-59
2021/10/05 00:29:02;;;;;;;6.28;5.72;;;;;;;;;;2040508;29;20183;-61
2021/10/05 00:30:04;;;;;;;6.18;5.63;;;;;;;;;;2039787;29;20167;-62
2021/10/05 00:31:04;;;;;;;6.10;5.60;;;;;;;;;;2039326;29;20196;-63
2021/10/05 00:32:04;;;;;;;6.28;5.75;;;;;;;;;;2039805;29;20176;-63
2021/10/05 00:33:04;;;;;;;6.93;6.28;;;;;;;;;;2039116;29;20614;-65
2021/10/05 00:34:05;;;;;;;6.70;6.20;;;;;;;;;;2041793;29;20195;-62
2021/10/05 00:35:06;;;;;;;7.38;6.85;;;;;;;;;;2038937;29;20196;-62
2021/10/05 00:36:06;;;;;;;6.57;6.07;;;;;;;;;;2040640;28;20661;-61
2021/10/05 00:37:07;;;;;;;7.10;6.50;;;;;;;;;;2042017;29;20172;-64
2021/10/05 00:38:07;;;;;;;6.80;6.28;;;;;;;;;;2047419;29;20561;-62
2021/10/05 00:39:07;;;;;;;6.65;5.75;;;;;;;;;;2042092;28;20184;-62
2021/10/05 00:40:08;;;;;;;7.38;6.70;;;;;;;;;;2041624;29;20216;-62
2021/10/05 00:41:08;;;;;;;7.05;6.45;;;;;;;;;;2042563;29;20194;-63
2021/10/05 00:42:09;;;;;;;7.78;5.80;;;;;;;;;;2039909;28;20187;-62
2021/10/05 00:43:09;;;;;;;6.97;6.45;;;;;;;;;;2041393;29;20287;-64
2021/10/05 00:44:09;;;;;;;6.45;5.95;;;;;;;;;;2039570;29;20206;-64
2021/10/05 00:45:10;;;;;;;6.78;6.28;;;;;;;;;;2037017;29;20180;-62
2021/10/05 00:46:10;;;;;;;6.82;6.22;;;;;;;;;;2041882;29;20254;-62
2021/10/05 00:47:11;;;;;;;6.25;5.72;;;;;;;;;;2043299;29;20234;-62
2021/10/05 00:48:11;;;;;;;6.72;6.13;;;;;;;;;;2043112;29;20171;-65
2021/10/05 00:49:12;;;;;;;6.85;6.35;;;;;;;;;;2044562;29;20176;-64
2021/10/05 00:50:15;;;;;;;6.43;5.97;;;;;;;;;;2043700;29;20184;-63
2021/10/05 00:51:15;;;;;;;7.25;6.60;;;;;;;;;;2043141;29;20267;-63
2021/10/05 00:52:16;;;;;;;6.65;6.05;;;;;;;;;;2043318;29;20168;-65
2021/10/05 00:53:17;;;;;;;7.35;6.75;;;;;;;;;;2044368;29;20186;-63
2021/10/05 00:54:17;;;;;;;7.10;6.45;;;;;;;;;;2043364;29;20187;-62
2021/10/05 00:55:17;;;;;;;7.30;6.35;;;;;;;;;;2042553;29;20640;-56
2021/10/05 00:56:18;;;;;;;7.00;6.40;;;;;;;;;;2037475;29;20180;-61
2021/10/05 00:57:18;;;;;;;7.15;6.50;;;;;;;;;;2040101;29;20617;-57
2021/10/05 00:58:19;;;;;;;7.90;7.15;;;;;;;;;;2044234;29;20180;-57
2021/10/05 00:59:19;;;;;;;7.07;6.07;;;;;;;;;;2043107;29;20187;-56
2021/10/05 01:00:20;;;;;;;7.20;6.60;;;;;;;;;;2039204;29;20184;-56
2021/10/05 01:01:20;;;;;;;7.20;6.50;;;;;;;;;;2036795;29;20184;-57
2021/10/05 01:02:20;;;;;;;7.00;6.50;;;;;;;;;;2050445;29;20190;-60
2021/10/05 01:03:20;;;;;;;10.02;6.60;;;;;;;;;;2051310;29;20179;-57
2021/10/05 01:04:21;;;;;;;7.50;6.93;;;;;;;;;;2045023;29;20175;-56
2021/10/05 01:05:21;;;;;;;7.32;6.60;;;;;;;;;;2044536;29;20175;-54
2021/10/05 01:06:21;;;;;;;7.63;7.13;;;;;;;;;;2039366;29;20173;-56
2021/10/05 01:07:22;;;;;;;7.25;6.45;;;;;;;;;;2041529;29;20758;-58
2021/10/05 01:08:22;;;;;;;7.63;6.85;;;;;;;;;;2043099;29;20214;-57
2021/10/05 01:09:22;;;;;;;8.02;7.32;;;;;;;;;;2048500;29;20194;-59
2021/10/05 01:10:23;;;;;;;7.32;6.68;;;;;;;;;;2045581;28;20171;-60
2021/10/05 01:11:24;;;;;;;8.35;7.65;;;;;;;;;;2042182;29;20191;-60
2021/10/05 01:12:24;;;;;;;8.20;7.50;;;;;;;;;;2043622;29;20180;-58
2021/10/05 01:13:25;;;;;;;7.20;6.70;;;;;;;;;;2042601;29;20262;-59
2021/10/05 01:14:26;;;;;;;7.80;7.18;;;;;;;;;;2043621;29;20863;-60
2021/10/05 01:15:27;;;;;;;8.63;7.93;;;;;;;;;;2040972;29;20655;-55
2021/10/05 01:16:27;;;;;;;8.30;7.68;;;;;;;;;;2040884;29;20183;-56
2021/10/05 01:17:27;;;;;;;8.45;7.47;;;;;;;;;;2044521;29;20275;-56
2021/10/05 01:18:28;;;;;;;8.70;7.75;;;;;;;;;;2043786;29;20167;-58
2021/10/05 01:19:28;;;;;;;8.10;7.40;;;;;;;;;;2042804;29;20223;-54
2021/10/05 01:20:28;;;;;;;8.35;7.22;;;;;;;;;;2044146;29;20175;-55
2021/10/05 01:21:29;;;;;;;7.60;7.00;;;;;;;;;;2042248;29;20270;-57
2021/10/05 01:22:29;;;;;;;8.20;7.50;;;;;;;;;;2043763;29;20526;-56
2021/10/05 01:23:29;;;;;;;8.20;7.50;;;;;;;;;;2043741;29;20176;-55
2021/10/05 01:24:30;;;;;;;7.15;6.55;;;;;;;;;;2043373;29;20184;-59
2021/10/05 01:25:31;;;;;;;8.35;7.53;;;;;;;;;;2043297;29;20177;-55
2021/10/05 01:26:32;;;;;;;8.32;7.63;;;;;;;;;;2043870;29;20202;-60
2021/10/05 01:27:39;;;;;;;7.82;7.13;;;;;;;;;;2042917;29;20219;-56
2021/10/05 01:28:39;;;;;;;7.75;7.05;;;;;;;;;;2043231;29;20202;-53
2021/10/05 01:29:40;;;;;;;7.80;7.10;;;;;;;;;;2042650;29;20194;-60
2021/10/05 01:30:40;;;;;;;6.72;6.22;;;;;;;;;;2042606;29;20310;-59
2021/10/05 01:31:41;;;;;;;8.27;7.47;;;;;;;;;;2043674;29;20218;-59
2021/10/05 01:32:42;;;;;;;8.32;7.35;;;;;;;;;;2041240;29;20212;-56
2021/10/05 01:33:42;;;;;;;8.40;7.63;;;;;;;;;;2042230;29;20192;-55
2021/10/05 01:34:42;;;;;;;8.55;7.75;;;;;;;;;;2042948;29;20172;-56
2021/10/05 01:35:43;;;;;;;8.15;7.45;;;;;;;;;;2035724;29;20267;-55
2021/10/05 01:36:43;;;;;;;7.95;7.28;;;;;;;;;;2043226;29;20573;-55
2021/10/05 01:37:43;;;;;;;8.13;7.43;;;;;;;;;;2043854;29;20266;-57
2021/10/05 01:38:44;;;;;;;7.97;7.20;;;;;;;;;;2044348;29;20288;-58
2021/10/05 01:39:44;;;;;;;8.23;7.43;;;;;;;;;;2036907;29;20621;-57
2021/10/05 01:40:44;;;;;;;8.20;7.55;;;;;;;;;;2035186;29;20187;-62
2021/10/05 01:41:45;;;;;;;8.27;7.53;;;;;;;;;;2036647;29;20383;-65
2021/10/05 01:42:45;;;;;;;7.82;7.20;;;;;;;;;;2044022;29;20211;-64
2021/10/05 01:43:45;;;;;;;8.63;7.88;;;;;;;;;;2043884;29;20179;-63
2021/10/05 01:44:46;;;;;;;8.85;8.05;;;;;;;;;;2037048;29;20794;-63
2021/10/05 01:45:46;;;;;;;8.43;7.63;;;;;;;;;;2043792;29;20316;-66
2021/10/05 01:46:48;;;;;;;7.63;7.05;;;;;;;;;;2043662;29;20259;-63
2021/10/05 01:47:49;;;;;;;8.15;7.35;;;;;;;;;;2043906;29;20182;-66
2021/10/05 01:48:49;;;;;;;8.30;7.60;;;;;;;;;;2042352;28;20208;-65
2021/10/05 01:49:49;;;;;;;8.70;7.80;;;;;;;;;;2036450;29;20676;-66
2021/10/05 01:50:50;;;;;;;8.30;7.60;;;;;;;;;;2035309;29;20184;-64
2021/10/05 01:51:51;;;;;;;8.10;7.38;;;;;;;;;;2036073;29;20180;-57
2021/10/05 01:52:51;;;;;;;8.40;7.70;;;;;;;;;;2036432;29;20204;-65
2021/10/05 01:53:51;;;;;;;8.38;7.40;;;;;;;;;;2043264;29;20167;-65
2021/10/05 01:54:52;;;;;;;7.80;7.10;;;;;;;;;;2036477;29;20184;-62
2021/10/05 01:55:52;;;;;;;7.95;7.30;;;;;;;;;;2043214;29;20251;-64
2021/10/05 01:56:52;;;;;;;8.75;7.95;;;;;;;;;;2030965;29;20173;-60
2021/10/05 01:57:52;;;;;;;8.82;8.02;;;;;;;;;;2035578;29;20196;-62
2021/10/05 01:58:54;;;;;;;9.20;8.30;;;;;;;;;;2042577;29;20351;-62
2021/10/05 01:59:54;;;;;;;9.10;8.40;;;;;;;;;;2038720;29;20176;-65
2021/10/05 02:00:54;;;;;;;8.27;7.57;;;;;;;;;;2037184;29;20212;-64
2021/10/05 02:01:55;;;;;;;8.88;8.07;;;;;;;;;;2056553;28;20194;-64
2021/10/05 02:02:56;;;;;;;7.97;7.28;;;;;;;;;;2049696;29;20287;-63
2021/10/05 02:03:56;;;;;;;9.38;8.48;;;;;;;;;;2041848;29;20195;-64
2021/10/05 02:04:56;;;;;;;9.07;8.20;;;;;;;;;;2042733;29;20263;-64
2021/10/05 02:05:56;;;;;;;9.48;8.68;;;;;;;;;;2042347;29;20255;-64
2021/10/05 02:06:57;;;;;;;9.23;8.43;;;;;;;;;;2042217;29;20188;-65
2021/10/05 02:07:57;;;;;;;8.95;8.10;;;;;;;;;;2050373;29;20627;-63
2021/10/05 02:08:57;;;;;;;8.73;8.02;;;;;;;;;;2050527;29;20210;-63
2021/10/05 02:09:58;;;;;;;9.38;8.52;;;;;;;;;;2041990;29;20249;-65
2021/10/05 02:10:58;;;;;;;9.80;8.88;;;;;;;;;;2042097;29;20187;-64
2021/10/05 02:11:58;;;;;;;9.52;8.73;;;;;;;;;;2041981;29;20196;-63
2021/10/05 02:12:58;;;;;;;9.55;8.65;;;;;;;;;;2042838;29;20196;-66
2021/10/05 02:13:59;;;;;;;9.07;8.15;;;;;;;;;;2042408;29;20187;-62
2021/10/05 02:14:59;;;;;;;9.85;8.98;;;;;;;;;;2043016;29;20239;-57
2021/10/05 02:15:59;;;;;;;9.15;8.25;;;;;;;;;;2042491;29;20195;-63
2021/10/05 02:16:59;;;;;;;8.90;8.10;;;;;;;;;;2042992;29;20191;-62
2021/10/05 02:18:00;;;;;;;9.98;9.13;;;;;;;;;;2042265;29;20184;-61
2021/10/05 02:19:00;;;;;;;9.63;8.63;;;;;;;;;;2050887;29;20234;-63
2021/10/05 02:20:01;;;;;;;9.70;8.77;;;;;;;;;;2049804;29;20167;-64
2021/10/05 02:21:01;;;;;;;10.77;8.95;;;;;;;;;;2038074;29;20167;-65
2021/10/05 02:22:01;;;;;;;10.02;9.13;;;;;;;;;;2042664;29;20255;-65
2021/10/05 02:23:01;;;;;;;9.85;8.85;;;;;;;;;;2041664;29;21701;-64
2021/10/05 02:25:21;;;;;;;11.52;8.10;;;;;;;;;;2051809;29;20506;-64
2021/10/05 02:26:21;;;;;;;9.82;9.00;;;;;;;;;;2045985;29;20187;-64
2021/10/05 02:27:21;;;;;;;9.35;8.48;;;;;;;;;;2043753;29;20211;-65
2021/10/05 02:28:22;;;;;;;9.43;8.45;;;;;;;;;;2042589;29;20195;-62
2021/10/05 02:29:22;;;;;;;10.68;9.57;;;;;;;;;;2043521;29;20204;-65
2021/10/05 02:30:22;;;;;;;9.15;8.38;;;;;;;;;;2041121;29;20178;-64
2021/10/05 02:31:23;;;;;;;10.32;9.25;;;;;;;;;;2042508;29;20182;-61
2021/10/05 02:32:23;;;;;;;10.32;9.25;;;;;;;;;;2043136;29;20261;-64
2021/10/05 02:33:23;;;;;;;10.35;9.27;;;;;;;;;;2042873;29;20174;-62
2021/10/05 02:34:23;;;;;;;9.43;8.57;;;;;;;;;;2042292;29;20199;-63
2021/10/05 02:35:24;;;;;;;10.15;9.05;;;;;;;;;;2042959;29;20668;-65
2021/10/05 02:36:24;;;;;;;10.07;8.85;;;;;;;;;;2043783;29;20168;-63
2021/10/05 02:37:29;;;;;;;10.13;8.57;;;;;;;;;;2043943;29;20172;-62
2021/10/05 02:38:29;;;;;;;9.30;8.45;;;;;;;;;;2043023;29;20163;-62
2021/10/05 02:39:29;;;;;;;10.02;8.80;;;;;;;;;;2041242;29;20968;-65
2021/10/05 02:40:30;;;;;;;10.00;9.20;;;;;;;;;;2042334;29;20207;-63
2021/10/05 02:41:30;;;;;;;9.98;8.98;;;;;;;;;;2043692;29;20171;-64
2021/10/05 02:43:37;;;;;;;9.85;9.02;;;;;;;;;;2034628;29;20223;-59
2021/10/05 02:44:39;;;;;;;9.80;8.80;;;;;;;;;;2040870;29;20232;-58
2021/10/05 02:45:39;;;;;;;9.52;8.73;;;;;;;;;;2040316;29;20274;-61
2021/10/05 02:46:39;;;;;;;10.48;9.52;;;;;;;;;;2041053;29;20176;-59
2021/10/05 02:47:40;;;;;;;10.43;9.52;;;;;;;;;;2040134;29;20207;-59
2021/10/05 02:48:40;;;;;;;9.93;9.02;;;;;;;;;;2040559;29;20294;-61
2021/10/05 02:49:43;;;;;;;10.02;9.13;;;;;;;;;;2047723;29;20183;-60
2021/10/05 02:50:44;;;;;;;9.50;8.70;;;;;;;;;;2047010;29;20281;-60
2021/10/05 02:51:44;;;;;;;9.95;8.95;;;;;;;;;;2041141;29;20195;-61
2021/10/05 02:52:44;;;;;;;10.82;9.82;;;;;;;;;;2040796;29;20172;-60
2021/10/05 02:53:45;;;;;;;11.32;10.23;;;;;;;;;;2033093;29;20274;-59
2021/10/05 02:54:48;;;;;;;11.80;10.60;;;;;;;;;;2033155;29;20293;-60
2021/10/05 02:55:49;;;;;;;10.90;9.90;;;;;;;;;;2032739;29;20168;-59
2021/10/05 02:56:49;;;;;;;10.65;9.55;;;;;;;;;;2032948;29;20233;-60
2021/10/05 02:57:49;;;;;;;10.48;9.50;;;;;;;;;;2032971;29;20196;-60
2021/10/05 02:58:50;;;;;;;11.13;10.10;;;;;;;;;;2031489;29;20673;-60
2021/10/05 02:59:50;;;;;;;11.07;9.75;;;;;;;;;;2032906;29;20188;-60
2021/10/05 03:00:50;;;;;;;11.55;10.50;;;;;;;;;;2025888;29;20212;-60
2021/10/05 03:01:51;;;;;;;12.70;11.25;;;;;;;;;;2033187;29;20195;-61
2021/10/05 03:02:51;;;;;;;11.73;10.52;;;;;;;;;;2033324;29;20192;-60
2021/10/05 03:03:51;;;;;;;11.95;10.48;;;;;;;;;;2032557;29;20217;-61
2021/10/05 03:04:51;;;;;;;12.52;11.32;;;;;;;;;;2032549;29;20641;-60
2021/10/05 03:05:52;;;;;;;11.30;10.27;;;;;;;;;;2033270;29;20817;-57
2021/10/05 03:06:52;;;;;;;10.80;9.70;;;;;;;;;;2033378;29;20183;-59
2021/10/05 03:07:53;;;;;;;12.20;10.45;;;;;;;;;;2033261;29;20177;-60
2021/10/05 03:08:54;;;;;;;10.98;9.98;;;;;;;;;;2032998;29;20210;-60
2021/10/05 03:09:55;;;;;;;11.38;10.30;;;;;;;;;;2031924;29;20708;-60
2021/10/05 03:10:56;;;;;;;12.52;11.32;;;;;;;;;;2032136;29;20183;-60
2021/10/05 03:11:57;;;;;;;11.55;10.45;;;;;;;;;;2032461;29;20192;-60
2021/10/05 03:12:57;;;;;;;10.80;9.75;;;;;;;;;;2032326;29;20231;-58
2021/10/05 03:13:57;;;;;;;11.93;10.82;;;;;;;;;;2032501;29;20271;-60
2021/10/05 03:14:58;;;;;;;13.32;10.93;;;;;;;;;;2032861;29;20263;-60
2021/10/05 03:15:58;;;;;;;11.43;10.23;;;;;;;;;;2036864;29;20215;-60
2021/10/05 03:16:59;;;;;;;11.65;10.48;;;;;;;;;;2033118;29;20267;-60
2021/10/05 03:17:59;;;;;;;14.05;12.40;;;;;;;;;;2026114;29;20181;-59
2021/10/05 03:18:59;;;;;;;14.40;11.95;;;;;;;;;;2032899;29;20826;-59
2021/10/05 03:20:00;;;;;;;12.32;11.13;;;;;;;;;;2032770;29;20678;-60
2021/10/05 03:21:00;;;;;;;12.93;11.73;;;;;;;;;;2032689;29;20236;-59
2021/10/05 03:22:00;;;;;;;13.20;11.75;;;;;;;;;;2028217;29;20267;-60
2021/10/05 03:23:01;;;;;;;12.35;11.10;;;;;;;;;;2032944;29;20645;-60
2021/10/05 03:24:01;;;;;;;12.63;11.35;;;;;;;;;;2032879;29;20715;-59
2021/10/05 03:25:02;;;;;;;12.73;11.20;;;;;;;;;;2032746;29;20700;-59
2021/10/05 03:26:04;;;;;;;12.98;11.65;;;;;;;;;;2033379;29;20207;-59
2021/10/05 03:27:06;;;;;;;12.25;11.05;;;;;;;;;;2032972;29;20247;-61
2021/10/05 03:28:06;;;;;;;12.90;11.60;;;;;;;;;;2032829;29;20240;-58
2021/10/05 03:29:10;;;;;;;12.10;11.00;;;;;;;;;;2032959;29;20239;-60
2021/10/05 03:30:10;;;;;;;12.15;10.95;;;;;;;;;;2032996;29;20213;-61
2021/10/05 03:31:11;;;;;;;12.68;11.38;;;;;;;;;;2032474;29;20181;-60
2021/10/05 03:32:11;;;;;;;12.20;11.02;;;;;;;;;;2033887;29;20169;-58
2021/10/05 03:33:11;;;;;;;11.90;10.80;;;;;;;;;;2032180;29;20223;-59
2021/10/05 03:34:12;;;;;;;12.07;10.82;;;;;;;;;;2032713;29;20196;-58
2021/10/05 03:35:12;;;;;;;11.63;10.52;;;;;;;;;;2032027;29;20581;-57
2021/10/05 03:36:13;;;;;;;12.10;11.00;;;;;;;;;;2032887;29;20268;-59
2021/10/05 03:37:13;;;;;;;11.80;10.60;;;;;;;;;;2033334;29;20180;-59
2021/10/05 03:38:13;;;;;;;12.15;10.95;;;;;;;;;;2033168;29;20173;-59
2021/10/05 03:39:14;;;;;;;11.98;10.88;;;;;;;;;;2033210;29;20641;-59
2021/10/05 03:40:14;;;;;;;12.75;11.50;;;;;;;;;;2032399;29;20208;-60
2021/10/05 03:41:14;;;;;;;12.70;11.35;;;;;;;;;;2031986;29;20710;-58
2021/10/05 03:42:14;;;;;;;12.65;11.40;;;;;;;;;;2038242;29;20708;-58
2021/10/05 03:43:15;;;;;;;11.75;10.65;;;;;;;;;;2037159;29;20562;-58
2021/10/05 03:44:15;;;;;;;12.40;11.20;;;;;;;;;;2033325;29;20186;-58
2021/10/05 03:45:15;;;;;;;13.80;11.15;;;;;;;;;;2032516;29;20176;-56
2021/10/05 03:46:16;;;;;;;11.85;10.65;;;;;;;;;;2032947;29;20291;-59
2021/10/05 03:47:16;;;;;;;12.30;11.10;;;;;;;;;;2033157;29;20182;-59
2021/10/05 03:48:17;;;;;;;13.20;11.90;;;;;;;;;;2032588;29;20172;-59
2021/10/05 03:49:17;;;;;;;13.23;11.15;;;;;;;;;;2031692;29;20239;-58
2021/10/05 03:50:18;;;;;;;12.52;11.35;;;;;;;;;;2039646;29;20219;-58
2021/10/05 03:51:18;;;;;;;13.77;12.48;;;;;;;;;;2039462;29;20206;-60
2021/10/05 03:52:19;;;;;;;13.13;11.75;;;;;;;;;;2032693;29;20180;-59
2021/10/05 03:53:20;;;;;;;12.98;11.43;;;;;;;;;;2040129;29;20195;-59
2021/10/05 03:54:20;;;;;;;14.18;12.70;;;;;;;;;;2039482;29;20254;-59
2021/10/05 03:55:20;;;;;;;12.85;11.55;;;;;;;;;;2032245;29;20172;-61
2021/10/05 03:56:20;;;;;;;13.65;12.20;;;;;;;;;;2032507;29;20172;-60
2021/10/05 03:57:21;;;;;;;15.73;12.60;;;;;;;;;;2032479;29;20180;-59
2021/10/05 03:58:22;;;;;;;14.43;12.93;;;;;;;;;;2032240;29;20267;-59
2021/10/05 03:59:22;;;;;;;13.88;12.52;;;;;;;;;;2033095;29;20172;-60
2021/10/05 04:00:22;;;;;;;16.25;14.60;;;;;;;;;;2030293;29;20176;-60
2021/10/05 04:01:23;;;;;;;13.00;11.07;;;;;;;;;;2031649;29;20181;-60
2021/10/05 04:02:23;;;;;;;15.57;13.23;;;;;;;;;;2031906;29;20187;-59
2021/10/05 04:03:24;;;;;;;14.60;13.07;;;;;;;;;;2033425;29;20192;-60
2021/10/05 04:04:24;;;;;;;15.88;14.20;;;;;;;;;;2030293;29;20184;-58
2021/10/05 04:05:24;;;;;;;16.52;13.82;;;;;;;;;;2032885;29;20207;-59
2021/10/05 04:06:24;;;;;;;15.35;13.82;;;;;;;;;;2030842;29;20534;-59
2021/10/05 04:07:25;;;;;;;15.80;13.98;;;;;;;;;;2033035;29;20248;-60
2021/10/05 04:08:25;;;;;;;18.08;15.15;;;;;;;;;;2030469;29;20639;-59
2021/10/05 04:09:25;;;;;;;16.95;14.48;;;;;;;;;;2031598;29;20192;-55
2021/10/05 04:10:25;;;;;;;16.92;13.90;;;;;;;;;;2032021;29;20273;-55
2021/10/05 04:11:26;;;;;;;16.27;14.60;;;;;;;;;;2031432;29;20185;-59
2021/10/05 04:12:26;;;;;;;16.35;14.27;;;;;;;;;;2029916;29;20199;-57
2021/10/05 04:13:26;;;;;;;17.80;14.02;;;;;;;;;;2031276;29;20299;-57
2021/10/05 04:14:27;;;;;;;16.40;14.68;;;;;;;;;;2031716;29;20251;-59
2021/10/05 04:15:27;;;;;;;17.73;15.57;;;;;;;;;;2032224;29;20180;-59
2021/10/05 04:16:27;;;;;;;17.63;15.82;;;;;;;;;;2032605;29;20653;-59
2021/10/05 04:17:29;;;;;;;16.88;15.13;;;;;;;;;;2032415;29;20173;-59
2021/10/05 04:18:29;;;;;;;15.63;14.02;;;;;;;;;;2032167;29;20198;-58
2021/10/05 04:19:30;;;;;;;18.42;15.35;;;;;;;;;;2032124;29;20169;-61
2021/10/05 04:20:30;;;;;;;18.08;14.80;;;;;;;;;;2033125;29;20184;-61
2021/10/05 04:21:30;;;;;;;20.85;15.18;;;;;;;;;;2030596;29;20168;-58
2021/10/05 04:22:31;;;;;;;17.27;15.48;;;;;;;;;;2027296;29;20176;-59
2021/10/05 04:23:31;;;;;;;17.00;15.20;;;;;;;;;;2031247;29;20720;-60
2021/10/05 04:24:31;;;;;;;20.08;15.27;;;;;;;;;;2030880;29;20229;-60
2021/10/05 04:25:31;;;;;;;18.38;16.10;;;;;;;;;;2031262;29;20244;-60
2021/10/05 04:26:32;;;;;;;18.85;15.77;;;;;;;;;;2033654;29;20183;-60
2021/10/05 04:27:33;;;;;;;17.92;15.48;;;;;;;;;;2034335;29;20259;-60
2021/10/05 04:28:33;;;;;;;17.55;15.75;;;;;;;;;;2034247;29;20184;-60
2021/10/05 04:29:33;;;;;;;17.13;15.35;;;;;;;;;;2033074;29;20219;-60
2021/10/05 04:30:33;;;;;;;17.98;15.95;;;;;;;;;;2034172;29;20205;-61
2021/10/05 04:31:36;;;;;;;18.67;15.25;;;;;;;;;;2034262;29;20180;-60
2021/10/05 04:32:37;;;;;;;18.38;15.93;;;;;;;;;;2033261;29;20176;-59
2021/10/05 04:33:37;;;;;;;17.98;15.88;;;;;;;;;;2034294;29;20184;-59
2021/10/05 04:34:38;;;;;;;18.85;15.60;;;;;;;;;;2032949;29;20673;-60
2021/10/05 04:35:38;;;;;;;17.67;15.80;;;;;;;;;;2031998;29;20183;-59
2021/10/05 04:36:38;;;;;;;19.30;15.55;;;;;;;;;;2034856;29;20677;-59
2021/10/05 04:37:38;;;;;;;17.58;15.13;;;;;;;;;;2034315;29;20233;-60
2021/10/05 04:38:39;;;;;;;19.15;16.50;;;;;;;;;;2035052;29;20302;-59
2021/10/05 04:39:39;;;;;;;18.73;16.23;;;;;;;;;;2033643;29;20676;-60
2021/10/05 04:40:39;;;;;;;20.42;17.00;;;;;;;;;;2033789;29;20220;-58
2021/10/05 04:41:39;;;;;;;17.85;15.95;;;;;;;;;;2033917;29;20260;-60
2021/10/05 04:42:40;;;;;;;20.77;16.48;;;;;;;;;;2033675;29;20176;-57
2021/10/05 04:43:40;;;;;;;18.38;16.40;;;;;;;;;;2041939;29;20207;-58
2021/10/05 04:44:40;;;;;;;19.38;17.27;;;;;;;;;;2035713;29;20196;-57
2021/10/05 04:45:41;;;;;;;19.40;16.88;;;;;;;;;;2033991;29;20319;-58
2021/10/05 04:46:41;;;;;;;21.83;16.10;;;;;;;;;;2034296;29;20747;-61
2021/10/05 04:47:41;;;;;;;18.50;15.95;;;;;;;;;;2035193;29;20212;-60
2021/10/05 04:48:42;;;;;;;17.83;15.93;;;;;;;;;;2035277;29;20218;-59
2021/10/05 04:49:42;;;;;;;20.33;17.60;;;;;;;;;;2034856;29;20263;-60
2021/10/05 04:50:42;;;;;;;18.75;16.38;;;;;;;;;;2034186;29;20181;-58
2021/10/05 04:51:42;;;;;;;20.52;16.48;;;;;;;;;;2031986;29;20188;-56
2021/10/05 04:52:43;;;;;;;19.58;16.58;;;;;;;;;;2033620;29;20188;-60
2021/10/05 04:53:43;;;;;;;20.73;17.25;;;;;;;;;;2035407;29;20208;-59
2021/10/05 04:54:43;;;;;;;20.15;16.27;;;;;;;;;;2033702;29;20184;-60
2021/10/05 04:55:44;;;;;;;19.85;16.55;;;;;;;;;;2033821;29;20179;-58
2021/10/05 04:56:45;;;;;;;18.20;16.17;;;;;;;;;;2033818;29;20263;-59
2021/10/05 04:57:45;;;;;;;19.52;16.40;;;;;;;;;;2034004;29;20681;-62
2021/10/05 04:58:45;;;;;;;20.63;17.38;;;;;;;;;;2025601;29;20303;-62
2021/10/05 04:59:46;;;;;;;18.95;16.02;;;;;;;;;;2033242;29;20204;-61
2021/10/05 05:00:46;;;;;;;20.63;17.40;;;;;;;;;;2033227;29;20188;-62
2021/10/05 05:01:47;;;;;;;20.70;16.70;;;;;;;;;;2032699;29;20192;-62
2021/10/05 05:02:47;;;;;;;23.52;18.85;;;;;;;;;;2033804;29;20209;-61
2021/10/05 05:03:47;;;;;;;24.15;18.92;;;;;;;;;;2034476;29;20557;-59
2021/10/05 05:04:48;;;;;;;23.00;17.70;;;;;;;;;;2034689;29;20667;-60
2021/10/05 05:05:48;;;;;;;22.23;18.08;;;;;;;;;;2032250;29;20180;-60
2021/10/05 05:06:48;;;;;;;20.30;17.30;;;;;;;;;;2034652;29;20183;-62
2021/10/05 05:07:49;;;;;;;24.48;18.38;;;;;;;;;;2034300;29;20180;-61
2021/10/05 05:08:49;;;;;;;22.98;17.48;;;;;;;;;;2032786;29;20198;-60
2021/10/05 05:09:49;;;;;;;20.40;17.55;;;;;;;;;;2033073;29;20176;-58
2021/10/05 05:10:50;;;;;;;22.40;17.30;;;;;;;;;;2034126;29;20204;-56
2021/10/05 05:11:50;;;;;;;22.17;17.80;;;;;;;;;;2034414;29;20505;-56
2021/10/05 05:12:50;;;;;;;22.35;18.70;;;;;;;;;;2035058;29;20191;-55
2021/10/05 05:13:50;;;;;;;24.65;18.63;;;;;;;;;;2034376;29;20169;-56
2021/10/05 05:14:51;;;;;;;22.40;19.02;;;;;;;;;;2034500;29;20235;-58
2021/10/05 05:15:51;;;;;;;24.92;19.58;;;;;;;;;;2034432;29;20180;-57
2021/10/05 05:16:51;;;;;;;25.40;20.40;;;;;;;;;;2034506;29;20688;-58
2021/10/05 05:17:51;;;;;;;25.52;20.67;;;;;;;;;;2034560;29;20637;-57
2021/10/05 05:18:53;;;;;;;26.63;19.88;;;;;;;;;;2034908;29;20230;-56
2021/10/05 05:19:53;;;;;;;27.60;20.33;;;;;;;;;;2041478;29;20199;-55
2021/10/05 05:20:54;;;;;;;28.83;22.08;;;;;;;;;;2033811;29;20188;-59
2021/10/05 05:21:57;;;;;;;27.10;20.70;;;;;;;;;;2033867;29;20187;-58
2021/10/05 05:22:57;;;;;;;27.23;20.15;;;;;;;;;;2034466;29;20267;-58
2021/10/05 05:23:58;;;;;;;29.20;19.42;;;;;;;;;;2034145;29;20720;-56
2021/10/05 05:24:58;;;;;;;25.35;19.85;;;;;;;;;;2035045;29;20595;-58
2021/10/05 05:25:58;;;;;;;28.77;20.55;;;;;;;;;;2033917;29;20677;-60
2021/10/05 05:26:58;;;;;;;28.17;19.92;;;;;;;;;;2025702;29;20212;-62
2021/10/05 05:27:58;;;;;;;27.33;20.98;;;;;;;;;;2028408;29;20271;-61
2021/10/05 05:28:59;;;;;;;26.77;20.60;;;;;;;;;;2033590;29;20192;-62
2021/10/05 05:29:59;;;;;;;29.77;22.38;;;;;;;;;;2033817;29;20873;-61
2021/10/05 05:30:59;;;;;;;26.75;20.48;;;;;;;;;;2031763;29;20178;-60
2021/10/05 05:31:59;;;;;;;26.58;20.17;;;;;;;;;;2032972;29;20223;-61
2021/10/05 05:33:00;;;;;;;26.50;21.30;;;;;;;;;;2033135;29;20202;-62
2021/10/05 05:34:00;;;;;;;29.33;21.23;;;;;;;;;;2031992;29;20176;-62
2021/10/05 05:35:00;;;;;;;26.65;20.50;;;;;;;;;;2033618;29;20661;-60
2021/10/05 05:36:00;;;;;;;27.77;21.38;;;;;;;;;;2032829;29;20192;-62
2021/10/05 05:37:01;;;;;;;30.05;22.13;;;;;;;;;;2034244;29;20184;-63
2021/10/05 05:38:01;;;;;;;25.90;20.17;;;;;;;;;;2040635;29;20278;-63
2021/10/05 05:39:03;;;;;;;28.35;22.58;;;;;;;;;;2041542;29;20207;-61
2021/10/05 05:40:03;;;;;;;28.58;20.02;;;;;;;;;;2034052;29;20646;-62
2021/10/05 05:41:04;;;;;;;30.17;21.35;;;;;;;;;;2032365;29;20177;-60
2021/10/05 05:42:04;;;;;;;29.73;20.55;;;;;;;;;;2033267;29;20276;-60
2021/10/05 05:43:04;;;;;;;31.00;22.60;;;;;;;;;;2033533;29;20288;-60
2021/10/05 05:44:04;;;;;;;34.97;24.80;;;;;;;;;;2033620;29;20192;-62
2021/10/05 05:45:05;;;;;;;30.20;22.92;;;;;;;;;;2033863;29;20648;-62
2021/10/05 05:46:05;;;;;;;33.53;23.58;;;;;;;;;;2041359;29;20183;-62
2021/10/05 05:47:06;;;;;;;30.50;21.40;;;;;;;;;;2041246;29;20243;-62
2021/10/05 05:48:06;;;;;;;29.90;21.77;;;;;;;;;;2033901;29;20633;-61
2021/10/05 05:49:06;;;;;;;30.67;23.17;;;;;;;;;;2034418;29;20211;-61
2021/10/05 05:50:08;;;;;;;33.22;23.30;;;;;;;;;;2034324;29;20204;-62
2021/10/05 05:51:08;;;;;;;29.40;23.30;;;;;;;;;;2033764;29;20391;-62
2021/10/05 05:52:08;;;;;;;31.63;22.83;;;;;;;;;;2034285;29;20239;-62
2021/10/05 05:53:08;;;;;;;30.77;21.48;;;;;;;;;;2033518;29;20311;-61
2021/10/05 05:54:09;;;;;;;30.27;22.48;;;;;;;;;;2034097;29;20576;-60
2021/10/05 05:55:09;;;;;;;29.83;23.35;;;;;;;;;;2033631;29;20169;-60
2021/10/05 05:56:09;;;;;;;30.50;22.85;;;;;;;;;;2030705;29;20677;-61
2021/10/05 05:57:09;;;;;;;32.05;24.38;;;;;;;;;;2033970;29;20180;-62
2021/10/05 05:58:10;;;;;;;32.90;23.25;;;;;;;;;;2033410;29;20672;-61
2021/10/05 05:59:10;;;;;;;31.95;22.95;;;;;;;;;;2033942;29;20175;-59